createdAt,value
2019-02-12T00:02:16.078Z,96644.60
2019-02-12T00:04:44.666Z,96648.30
2019-02-12T00:07:13.256Z,96644.14
2019-02-12T00:09:41.841Z,96644.25
2019-02-12T00:12:10.921Z,96632.61
2019-02-12T00:14:39.510Z,96638.90
2019-02-12T00:17:08.932Z,96642.17
2019-02-12T00:19:37.520Z,96648.93
2019-02-12T00:22:06.403Z,96645.07
2019-02-12T00:24:35.030Z,96653.70
2019-02-12T00:27:03.609Z,96653.13
2019-02-12T00:29:32.283Z,96666.88
2019-02-12T00:32:00.912Z,96663.50
2019-02-12T00:34:29.506Z,96676.09
2019-02-12T00:36:58.098Z,96673.85
2019-02-12T00:39:26.679Z,96673.06
2019-02-12T00:41:55.254Z,96678.20
2019-02-12T00:44:23.842Z,96673.17
2019-02-12T00:46:52.436Z,96676.41
2019-02-12T00:49:21.022Z,96678.00
2019-02-12T00:51:49.605Z,96683.58
2019-02-12T00:54:18.184Z,96688.76
2019-02-12T00:56:46.769Z,96698.55
2019-02-12T00:59:15.362Z,96691.28
2019-02-12T01:01:43.949Z,96695.28
2019-02-12T01:04:12.648Z,96693.89
2019-02-12T01:06:41.380Z,96692.75
2019-02-12T01:09:11.092Z,96697.83
2019-02-12T01:11:39.766Z,96701.09
2019-02-12T01:14:08.714Z,96705.06
2019-02-12T01:16:37.297Z,96703.91
2019-02-12T01:19:05.870Z,96707.51
2019-02-12T01:21:34.461Z,96706.78
2019-02-12T01:24:03.039Z,96709.27
2019-02-12T01:26:31.686Z,96703.66
2019-02-12T01:29:00.271Z,96704.80
2019-02-12T01:31:28.854Z,96707.13
2019-02-12T01:33:57.486Z,96700.61
2019-02-12T01:36:26.106Z,96699.25
2019-02-12T01:38:57.397Z,96695.73
2019-02-12T01:41:25.983Z,96691.70
2019-02-12T01:43:54.565Z,96696.60
2019-02-12T01:46:23.146Z,96689.62
2019-02-12T01:48:51.738Z,96691.38
2019-02-12T01:51:20.338Z,96682.05
2019-02-12T01:53:48.921Z,96682.05
2019-02-12T01:56:17.507Z,96692.73
2019-02-12T01:58:46.092Z,96694.36
2019-02-12T02:01:14.675Z,96689.47
2019-02-12T02:03:43.263Z,96695.91
2019-02-12T02:06:12.853Z,96696.48
2019-02-12T02:08:41.478Z,96710.83
2019-02-12T02:11:10.424Z,96706.98
2019-02-12T02:13:39.013Z,96712.58
2019-02-12T02:16:07.598Z,96703.25
2019-02-12T02:18:36.194Z,96701.97
2019-02-12T02:21:04.784Z,96701.97
2019-02-12T02:23:33.370Z,96708.14
2019-02-12T02:26:01.959Z,96709.63
2019-02-12T02:28:30.552Z,96702.20
2019-02-12T02:30:59.151Z,96702.09
2019-02-12T02:33:27.734Z,96702.63
2019-02-12T02:35:56.377Z,96698.91
2019-02-12T02:38:25.121Z,96697.28
2019-02-12T02:40:53.704Z,96698.32
2019-02-12T02:43:22.309Z,96699.02
2019-02-12T02:45:50.891Z,96708.23
2019-02-12T02:48:19.489Z,96710.16
2019-02-12T02:50:48.076Z,96715.68
2019-02-12T02:53:16.669Z,96733.28
2019-02-12T02:55:45.253Z,96737.66
2019-02-12T02:58:13.831Z,96738.00
2019-02-12T03:00:43.599Z,96736.14
2019-02-12T03:03:12.187Z,96748.61
2019-02-12T03:05:40.808Z,96743.99
2019-02-12T03:08:09.663Z,96730.95
2019-02-12T03:10:38.253Z,96740.27
2019-02-12T03:13:07.710Z,96734.98
2019-02-12T03:15:36.293Z,96737.81
2019-02-12T03:18:04.884Z,96736.08
2019-02-12T03:20:33.478Z,96745.20
2019-02-12T03:23:02.085Z,96748.59
2019-02-12T03:25:30.679Z,96746.38
2019-02-12T03:27:59.269Z,96744.98
2019-02-12T03:30:27.858Z,96744.16
2019-02-12T03:32:56.442Z,96746.56
2019-02-12T03:35:25.037Z,96750.12
2019-02-12T03:37:53.632Z,96741.49
2019-02-12T03:40:22.241Z,96746.28
2019-02-12T03:42:50.909Z,96742.77
2019-02-12T03:45:19.553Z,96748.75
2019-02-12T03:47:48.138Z,96741.73
2019-02-12T03:50:16.730Z,96744.92
2019-02-12T03:52:45.326Z,96752.20
2019-02-12T03:55:14.221Z,96749.19
2019-02-12T03:57:42.866Z,96755.13
2019-02-12T04:00:14.428Z,96750.16
2019-02-12T04:03:03.821Z,96749.27
2019-02-12T04:05:32.522Z,96750.16
2019-02-12T04:08:01.208Z,96753.99
2019-02-12T04:10:29.863Z,96756.44
2019-02-12T04:12:58.469Z,96756.52
2019-02-12T04:15:27.099Z,96754.42
2019-02-12T04:17:55.685Z,96760.83
2019-02-12T04:20:24.288Z,96762.46
2019-02-12T04:22:52.872Z,96759.38
2019-02-12T04:25:21.496Z,96763.58
2019-02-12T04:27:50.081Z,96759.83
2019-02-12T04:30:18.670Z,96759.94
2019-02-12T04:32:47.257Z,96773.78
2019-02-12T04:35:15.850Z,96769.58
2019-02-12T04:37:44.436Z,96766.89
2019-02-12T04:40:13.020Z,96767.06
2019-02-12T04:42:41.609Z,96771.42
2019-02-12T04:45:11.457Z,96775.55
2019-02-12T04:47:40.049Z,96776.01
2019-02-12T04:50:15.620Z,96776.08
2019-02-12T04:52:44.215Z,96765.95
2019-02-12T04:55:12.913Z,96772.52
2019-02-12T04:57:41.562Z,96767.48
2019-02-12T05:00:16.071Z,96770.27
2019-02-12T05:02:44.712Z,96772.25
2019-02-12T05:05:13.299Z,96772.02
2019-02-12T05:07:41.884Z,96769.09
2019-02-12T05:10:34.402Z,96766.94
2019-02-12T05:13:03.010Z,96766.02
2019-02-12T05:15:31.581Z,96770.27
2019-02-12T05:18:00.217Z,96774.22
2019-02-12T05:20:28.804Z,96772.77
2019-02-12T05:22:57.405Z,96775.33
2019-02-12T05:25:26.018Z,96779.13
2019-02-12T05:27:54.619Z,96773.34
2019-02-12T05:34:04.396Z,96777.48
2019-02-12T05:36:32.980Z,96775.77
2019-02-12T05:39:01.593Z,96771.36
2019-02-12T05:41:30.166Z,96779.13
2019-02-12T05:43:58.751Z,96785.22
2019-02-12T05:46:27.393Z,96781.90
2019-02-12T05:48:56.024Z,96781.11
2019-02-12T05:51:24.614Z,96781.90
2019-02-12T05:53:53.336Z,96778.98
2019-02-12T05:56:21.933Z,96778.77
2019-02-12T05:58:50.527Z,96771.58
2019-02-12T06:01:19.707Z,96771.80
2019-02-12T06:03:48.296Z,96771.14
2019-02-12T06:06:17.282Z,96771.58
2019-02-12T06:08:46.058Z,96766.07
2019-02-12T06:11:14.637Z,96764.03
2019-02-12T06:13:49.267Z,96768.87
2019-02-12T06:16:17.880Z,96764.91
2019-02-12T06:18:46.453Z,96763.32
2019-02-12T06:21:15.080Z,96761.58
2019-02-12T06:23:43.660Z,96766.09
2019-02-12T06:26:12.244Z,96767.02
2019-02-12T06:28:40.837Z,96768.17
2019-02-12T06:31:10.305Z,96777.05
2019-02-12T06:33:38.888Z,96778.41
2019-02-12T06:36:07.775Z,96777.70
2019-02-12T06:38:36.368Z,96790.78
2019-02-12T06:41:04.963Z,96791.97
2019-02-12T06:43:33.556Z,96797.30
2019-02-12T06:46:02.143Z,96808.55
2019-02-12T06:48:30.730Z,96806.98
2019-02-12T06:50:59.314Z,96812.92
2019-02-12T06:53:27.939Z,96818.95
2019-02-12T06:55:56.609Z,96824.20
2019-02-12T06:58:25.232Z,96836.74
2019-02-12T07:00:53.822Z,96844.43
2019-02-12T07:03:23.210Z,96839.52
2019-02-12T07:06:03.563Z,96842.00
2019-02-12T07:08:46.913Z,96838.73
2019-02-12T07:11:50.727Z,96847.03
2019-02-12T07:14:31.635Z,96842.54
2019-02-12T07:17:32.040Z,96846.41
2019-02-12T07:20:18.576Z,96849.44
2019-02-12T07:22:59.395Z,96848.08
2019-02-12T07:25:40.280Z,96855.87
2019-02-12T07:28:29.427Z,96854.16
2019-02-12T07:31:19.227Z,96858.30
2019-02-12T07:34:08.896Z,96865.20
2019-02-12T07:37:03.385Z,96866.97
2019-02-12T07:39:53.401Z,96866.91
2019-02-12T07:42:27.956Z,96879.06
2019-02-12T07:45:34.760Z,96875.53
2019-02-12T07:48:25.608Z,96890.58
2019-02-12T07:51:03.109Z,96891.52
2019-02-12T07:53:40.475Z,96897.72
2019-02-12T07:56:18.147Z,96903.33
2019-02-12T07:58:55.868Z,96904.78
2019-02-12T08:01:50.477Z,96918.90
2019-02-12T08:04:22.189Z,96915.73
2019-02-12T08:06:59.938Z,96915.56
2019-02-12T08:09:48.083Z,96912.12
2019-02-12T08:12:25.398Z,96919.50
2019-02-12T08:15:12.283Z,96925.34
2019-02-12T08:18:16.094Z,96923.77
2019-02-12T08:21:10.026Z,96922.84
2019-02-12T08:24:00.135Z,96926.59
2019-02-12T08:26:54.497Z,96928.49
2019-02-12T08:29:29.126Z,96926.44
2019-02-12T08:32:18.420Z,96931.23
2019-02-12T08:34:52.887Z,96935.45
2019-02-12T08:37:31.989Z,96924.48
2019-02-12T08:40:10.007Z,96926.25
2019-02-12T08:42:56.865Z,96919.36
2019-02-12T08:45:37.575Z,96922.20
2019-02-12T08:48:27.133Z,96932.11
2019-02-12T08:51:16.446Z,96928.62
2019-02-12T08:54:07.884Z,96932.36
2019-02-12T08:56:48.411Z,96928.87
2019-02-12T08:59:20.109Z,96927.45
2019-02-12T09:01:57.520Z,96923.26
2019-02-12T09:04:38.207Z,96929.69
2019-02-12T09:07:10.810Z,96928.91
2019-02-12T09:10:15.666Z,96932.54
2019-02-12T09:12:56.368Z,96939.27
2019-02-12T09:16:01.600Z,96937.20
2019-02-12T09:18:39.137Z,96933.60
2019-02-12T09:21:45.427Z,96933.60
2019-02-12T09:24:34.521Z,96932.94
2019-02-12T09:27:21.152Z,96932.48
2019-02-12T09:29:52.858Z,96929.44
2019-02-12T09:32:44.192Z,96929.67
2019-02-12T09:35:22.555Z,96935.52
2019-02-12T09:38:15.444Z,96929.91
2019-02-12T09:40:56.165Z,96934.84
2019-02-12T09:43:47.122Z,96937.87
2019-02-12T09:46:53.736Z,96935.20
2019-02-12T09:49:46.485Z,96942.29
2019-02-12T09:52:50.113Z,96952.36
2019-02-12T09:55:30.910Z,96954.95
2019-02-12T09:58:11.496Z,96957.27
2019-02-12T10:00:43.210Z,96964.73
2019-02-12T10:03:30.333Z,96964.62
2019-02-12T10:06:02.092Z,96967.31
2019-02-12T10:08:50.520Z,96967.92
2019-02-12T10:11:42.853Z,96973.64
2019-02-12T10:14:39.996Z,96972.81
2019-02-12T10:17:26.937Z,96986.97
2019-02-12T10:19:58.633Z,96991.18
2019-02-12T10:22:38.936Z,96997.97
2019-02-12T10:25:17.324Z,96997.50
2019-02-12T10:27:55.010Z,96996.66
2019-02-12T10:30:29.469Z,97003.33
2019-02-12T10:32:58.093Z,97000.75
2019-02-12T10:35:26.675Z,96992.91
2019-02-12T10:37:55.259Z,96998.13
2019-02-12T10:40:23.840Z,97000.61
2019-02-12T10:42:52.414Z,97012.40
2019-02-12T10:45:20.992Z,97016.39
2019-02-12T10:47:49.874Z,97015.91
2019-02-12T10:50:18.467Z,97016.61
2019-02-12T10:52:47.049Z,97021.55
2019-02-12T10:55:15.636Z,97021.17
2019-02-12T10:57:44.220Z,97020.99
2019-02-12T11:00:14.432Z,97026.16
2019-02-12T11:02:43.012Z,97017.44
2019-02-12T11:05:12.792Z,97014.45
2019-02-12T11:07:41.377Z,97020.30
2019-02-12T11:10:10.465Z,97011.83
2019-02-12T11:12:39.221Z,97015.25
2019-02-12T11:15:10.083Z,97013.52
2019-02-12T11:17:38.663Z,97005.73
2019-02-12T11:20:09.352Z,97001.42
2019-02-12T11:22:38.107Z,96994.27
2019-02-12T11:25:08.530Z,96994.46
2019-02-12T11:27:37.189Z,96992.63
2019-02-12T11:30:08.888Z,97003.72
2019-02-12T11:32:37.463Z,97001.66
2019-02-12T11:35:13.739Z,96996.30
2019-02-12T11:37:42.327Z,96993.80
2019-02-12T11:40:13.495Z,96996.40
2019-02-12T11:42:42.183Z,96997.28
2019-02-12T11:45:15.234Z,96982.91
2019-02-12T11:47:43.812Z,96980.16
2019-02-12T11:50:13.269Z,96974.41
2019-02-12T11:52:41.848Z,96970.28
2019-02-12T11:55:12.781Z,96966.91
2019-02-12T11:57:41.363Z,96970.77
2019-02-12T12:00:16.088Z,96968.53
2019-02-12T12:02:44.674Z,96960.97
2019-02-12T12:05:13.260Z,96960.17
2019-02-12T12:07:41.843Z,96950.66
2019-02-12T12:10:11.967Z,96952.98
2019-02-12T12:12:40.565Z,96936.33
2019-02-12T12:15:15.247Z,96940.08
2019-02-12T12:17:43.863Z,96938.30
2019-02-12T12:20:14.726Z,96931.47
2019-02-12T12:22:43.303Z,96924.17
2019-02-12T12:25:13.297Z,96928.81
2019-02-12T12:27:41.884Z,96928.17
2019-02-12T12:30:12.718Z,96919.20
2019-02-12T12:32:41.307Z,96918.66
2019-02-12T12:35:11.135Z,96914.17
2019-02-12T12:37:39.715Z,96909.97
2019-02-12T12:40:11.012Z,96914.97
2019-02-12T12:42:39.591Z,96912.50
2019-02-12T12:45:13.391Z,96902.84
2019-02-12T12:47:42.059Z,96908.35
2019-02-12T12:50:12.274Z,96909.87
2019-02-12T12:52:40.860Z,96909.33
2019-02-12T12:55:10.335Z,96905.77
2019-02-12T12:57:41.970Z,96887.40
2019-02-12T13:00:17.709Z,96878.97
2019-02-12T13:02:46.296Z,96874.49
2019-02-12T13:05:14.900Z,96869.13
2019-02-12T13:07:43.478Z,96869.79
2019-02-12T13:10:15.338Z,96875.16
2019-02-12T13:12:43.958Z,96867.64
2019-02-12T13:15:14.144Z,96864.27
2019-02-12T13:17:42.726Z,96871.83
2019-02-12T13:20:22.504Z,96866.62
2019-02-12T13:22:51.128Z,96875.91
2019-02-12T13:25:19.756Z,96874.25
2019-02-12T13:27:48.343Z,96872.91
2019-02-12T13:30:20.049Z,96877.13
2019-02-12T13:32:48.630Z,96866.06
2019-02-12T13:35:17.262Z,96871.37
2019-02-12T13:37:45.845Z,96875.86
2019-02-12T13:40:14.429Z,96870.60
2019-02-12T13:42:43.018Z,96865.91
2019-02-12T13:45:17.112Z,96860.27
2019-02-12T13:47:45.688Z,96872.50
2019-02-12T13:50:14.568Z,96872.50
2019-02-12T13:52:43.148Z,96868.34
2019-02-12T13:55:17.527Z,96866.72
2019-02-12T13:57:42.821Z,96871.36
2019-02-12T14:00:15.930Z,96871.84
2019-02-12T14:02:44.518Z,96870.25
2019-02-12T14:05:18.932Z,96868.63
2019-02-12T14:07:47.571Z,96873.17
2019-02-12T14:10:16.141Z,96873.14
2019-02-12T14:12:44.725Z,96869.36
2019-02-12T14:15:14.106Z,96862.20
2019-02-12T14:17:42.723Z,96859.90
2019-02-12T14:20:19.592Z,96859.92
2019-02-12T14:22:48.184Z,96846.61
2019-02-12T14:25:24.969Z,96846.31
2019-02-12T14:27:47.399Z,96849.69
2019-02-12T14:30:18.140Z,96850.45
2019-02-12T14:32:46.922Z,96840.10
2019-02-12T14:35:15.533Z,96834.78
2019-02-12T14:37:44.139Z,96837.51
2019-02-12T14:40:13.927Z,96832.94
2019-02-12T14:42:42.512Z,96830.84
2019-02-12T14:45:16.375Z,96820.65
2019-02-12T14:47:44.955Z,96827.43
2019-02-12T14:50:21.128Z,96818.22
2019-02-12T14:52:49.711Z,96818.22
2019-02-12T14:55:18.348Z,96821.78
2019-02-12T14:57:46.926Z,96824.96
2019-02-12T15:00:19.479Z,96821.75
2019-02-12T15:02:48.060Z,96814.99
2019-02-12T15:05:16.679Z,96813.30
2019-02-12T15:07:45.249Z,96811.48
2019-02-12T15:10:16.665Z,96804.70
2019-02-12T15:12:45.245Z,96813.22
2019-02-12T15:15:13.868Z,96807.86
2019-02-12T15:17:42.453Z,96809.73
2019-02-12T15:20:12.849Z,96811.04
2019-02-12T15:22:41.480Z,96795.56
2019-02-12T15:25:11.925Z,96798.83
2019-02-12T15:27:40.551Z,96794.91
2019-02-12T15:30:16.034Z,96791.15
2019-02-12T15:32:44.613Z,96792.45
2019-02-12T15:35:13.267Z,96786.92
2019-02-12T15:37:41.847Z,96787.77
2019-02-12T15:40:13.567Z,96790.05
2019-02-12T15:42:42.148Z,96784.53
2019-02-12T15:45:13.564Z,96780.00
2019-02-12T15:47:42.147Z,96790.39
2019-02-12T15:50:11.896Z,96788.36
2019-02-12T15:52:40.528Z,96782.78
2019-02-12T15:55:12.421Z,96777.67
2019-02-12T15:57:43.142Z,96770.22
2019-02-12T16:00:15.753Z,96777.94
2019-02-12T16:02:45.196Z,96780.97
2019-02-12T16:05:14.077Z,96770.10
2019-02-12T16:07:44.658Z,96772.53
2019-02-12T16:10:19.546Z,96769.90
2019-02-12T16:12:48.836Z,96765.34
2019-02-12T16:15:21.510Z,96773.73
2019-02-12T16:17:49.194Z,96767.97
2019-02-12T16:20:17.791Z,96764.38
2019-02-12T16:22:46.365Z,96767.50
2019-02-12T16:25:15.558Z,96766.31
2019-02-12T16:27:44.286Z,96763.73
2019-02-12T16:30:15.601Z,96772.95
2019-02-12T16:32:44.231Z,96763.72
2019-02-12T16:35:14.923Z,96766.68
2019-02-12T16:37:43.503Z,96770.23
2019-02-12T16:40:14.040Z,96772.16
2019-02-12T16:42:42.623Z,96776.08
2019-02-12T16:45:23.645Z,96773.69
2019-02-12T16:47:52.230Z,96781.13
2019-02-12T16:50:20.810Z,96773.36
2019-02-12T16:52:49.388Z,96776.75
2019-02-12T16:55:17.971Z,96780.62
2019-02-12T16:57:46.587Z,96781.70
2019-02-12T17:00:17.272Z,96778.84
2019-02-12T17:02:46.718Z,96789.48
2019-02-12T17:05:15.845Z,96796.33
2019-02-12T17:07:45.423Z,96797.82
2019-02-12T17:10:14.496Z,96803.02
2019-02-12T17:12:43.080Z,96799.09
2019-02-12T17:15:16.887Z,96806.95
2019-02-12T17:17:45.472Z,96808.20
2019-02-12T17:20:21.798Z,96811.92
2019-02-12T17:22:50.379Z,96814.80
2019-02-12T17:25:18.986Z,96820.73
2019-02-12T17:27:48.130Z,96816.88
2019-02-12T17:30:18.583Z,96821.57
2019-02-12T17:32:47.168Z,96824.30
2019-02-12T17:35:15.850Z,96825.05
2019-02-12T17:37:44.478Z,96825.66
2019-02-12T17:40:15.721Z,96821.59
2019-02-12T17:42:44.299Z,96823.58
2019-02-12T17:45:17.425Z,96827.17
2019-02-12T17:47:46.036Z,96839.26
2019-02-12T17:50:15.371Z,96848.80
2019-02-12T17:52:43.958Z,96843.38
2019-02-12T17:55:13.024Z,96842.12
2019-02-12T17:57:41.655Z,96849.19
2019-02-12T18:00:19.605Z,96850.91
2019-02-12T18:02:48.230Z,96843.75
2019-02-12T18:05:16.807Z,96851.35
2019-02-12T18:07:45.395Z,96850.67
2019-02-12T18:10:13.973Z,96858.75
2019-02-12T18:12:42.558Z,96857.05
2019-02-12T18:15:16.099Z,96861.08
2019-02-12T18:17:44.706Z,96851.84
2019-02-12T18:20:17.446Z,96859.98
2019-02-12T18:22:46.031Z,96856.38
2019-02-12T18:25:14.614Z,96862.83
2019-02-12T18:27:43.199Z,96864.05
2019-02-12T18:30:15.272Z,96860.86
2019-02-12T18:32:43.861Z,96856.99
2019-02-12T18:35:12.979Z,96861.13
2019-02-12T18:37:41.564Z,96862.23
2019-02-12T18:40:16.067Z,96860.68
2019-02-12T18:42:44.844Z,96853.55
2019-02-12T18:45:16.134Z,96860.05
2019-02-12T18:47:44.723Z,96861.89
2019-02-12T18:50:13.324Z,96858.55
2019-02-12T18:52:41.886Z,96860.52
2019-02-12T18:55:13.519Z,96865.08
2019-02-12T18:57:42.137Z,96868.86
2019-02-12T19:00:17.065Z,96871.97
2019-02-12T19:02:45.640Z,96874.55
2019-02-12T19:05:14.335Z,96874.55
2019-02-12T19:07:43.106Z,96883.03
2019-02-12T19:10:14.836Z,96880.03
2019-02-12T19:12:43.495Z,96883.61
2019-02-12T19:15:20.498Z,96884.21
2019-02-12T19:17:58.382Z,96888.41
2019-02-12T19:20:26.966Z,96882.39
2019-02-12T19:22:55.553Z,96878.66
2019-02-12T19:25:24.126Z,96874.11
2019-02-12T19:27:52.715Z,96875.97
2019-02-12T19:30:21.298Z,96873.60
2019-02-12T19:32:49.888Z,96880.34
2019-02-12T19:35:18.469Z,96882.75
2019-02-12T19:37:47.051Z,96884.59
2019-02-12T19:40:15.701Z,96881.27
2019-02-12T19:42:44.283Z,96880.33
2019-02-12T19:45:14.709Z,96877.84
2019-02-12T19:47:43.338Z,96885.47
2019-02-12T19:50:12.957Z,96885.47
2019-02-12T19:52:41.541Z,96888.23
2019-02-12T19:55:10.840Z,96886.24
2019-02-12T19:57:39.425Z,96877.95
2019-02-12T20:00:20.511Z,96877.41
2019-02-12T20:02:50.197Z,96877.22
2019-02-12T20:05:18.985Z,96877.34
2019-02-12T20:07:47.572Z,96881.14
2019-02-12T20:10:16.353Z,96881.73
2019-02-12T20:12:45.010Z,96875.83
2019-02-12T20:15:18.277Z,96882.05
2019-02-12T20:17:46.859Z,96886.29
2019-02-12T20:20:15.436Z,96886.79
2019-02-12T20:22:44.017Z,96891.44
2019-02-12T20:25:13.100Z,96892.75
2019-02-12T20:27:41.681Z,96904.41
2019-02-12T20:30:15.316Z,96894.38
2019-02-12T20:32:43.903Z,96903.05
2019-02-12T20:35:14.186Z,96903.73
2019-02-12T20:37:42.764Z,96904.42
2019-02-12T20:40:13.436Z,96897.60
2019-02-12T20:42:42.112Z,96898.09
2019-02-12T20:45:16.128Z,96897.48
2019-02-12T20:47:44.709Z,96896.91
2019-02-12T20:50:21.366Z,96891.86
2019-02-12T20:52:49.985Z,96897.48
2019-02-12T20:55:18.627Z,96895.97
2019-02-12T20:57:47.197Z,96899.73
2019-02-12T21:00:23.027Z,96901.62
2019-02-12T21:02:51.610Z,96900.67
2019-02-12T21:05:20.215Z,96904.92
2019-02-12T21:07:49.172Z,96908.19
2019-02-12T21:10:21.983Z,96908.43
2019-02-12T21:12:50.565Z,96898.59
2019-02-12T21:15:29.906Z,96894.59
2019-02-12T21:17:58.540Z,96903.05
2019-02-12T21:20:27.120Z,96900.58
2019-02-12T21:22:56.300Z,96900.48
2019-02-12T21:25:24.877Z,96904.71
2019-02-12T21:27:53.471Z,96900.61
2019-02-12T21:30:23.441Z,96907.49
2019-02-12T21:32:52.022Z,96909.58
2019-02-12T21:35:20.636Z,96907.16
2019-02-12T21:37:49.228Z,96898.98
2019-02-12T21:40:20.658Z,96899.08
2019-02-12T21:42:49.347Z,96903.98
2019-02-12T21:45:18.016Z,96900.27
2019-02-12T21:47:46.628Z,96901.41
2019-02-12T21:50:15.319Z,96895.23
2019-02-12T21:52:43.879Z,96893.23
2019-02-12T21:55:14.456Z,96883.90
2019-02-12T21:57:43.082Z,96886.88
2019-02-12T22:00:20.452Z,96886.00
2019-02-12T22:02:49.124Z,96890.92
2019-02-12T22:05:18.010Z,96880.89
2019-02-12T22:07:46.641Z,96879.48
2019-02-12T22:10:20.526Z,96878.30
2019-02-12T22:12:49.177Z,96882.17
2019-02-12T22:15:17.766Z,96883.22
2019-02-12T22:17:46.356Z,96891.64
2019-02-12T22:20:19.788Z,96888.26
2019-02-12T22:22:48.371Z,96886.73
2019-02-12T22:25:16.996Z,96884.38
2019-02-12T22:27:45.597Z,96891.62
2019-02-12T22:30:16.835Z,96889.28
2019-02-12T22:32:45.423Z,96881.48
2019-02-12T22:35:15.015Z,96884.52
2019-02-12T22:37:43.609Z,96886.05
2019-02-12T22:40:13.952Z,96888.25
2019-02-12T22:42:42.554Z,96881.70
2019-02-12T22:45:19.293Z,96893.75
2019-02-12T22:47:47.881Z,96893.50
2019-02-12T22:50:16.465Z,96894.68
2019-02-12T22:52:45.060Z,96891.64
2019-02-12T22:55:13.671Z,96888.13
2019-02-12T22:57:48.818Z,96882.53
2019-02-12T23:00:22.053Z,96878.56
2019-02-12T23:02:50.632Z,96876.80
2019-02-12T23:05:19.222Z,96868.02
2019-02-12T23:07:47.851Z,96874.20
2019-02-12T23:10:16.470Z,96867.78
2019-02-12T23:12:45.048Z,96864.98
2019-02-12T23:15:13.681Z,96861.02
2019-02-12T23:17:42.266Z,96860.92
2019-02-12T23:20:11.950Z,96859.88
2019-02-12T23:22:40.529Z,96855.45
2019-02-12T23:25:10.098Z,96862.34
2019-02-12T23:27:38.684Z,96853.34
2019-02-12T23:30:09.566Z,96854.73
2019-02-12T23:32:38.155Z,96860.36
2019-02-12T23:35:07.042Z,96857.53
2019-02-12T23:37:35.619Z,96862.33
2019-02-12T23:40:04.804Z,96861.97
2019-02-12T23:42:33.407Z,96861.28
2019-02-12T23:45:01.990Z,96869.67
2019-02-12T23:47:30.572Z,96873.18
2019-02-12T23:49:59.155Z,96874.36
2019-02-12T23:52:27.748Z,96868.39
2019-02-12T23:54:56.322Z,96873.06
2019-02-12T23:57:24.901Z,96868.87
2019-02-12T23:59:53.519Z,96869.44
